sensor_id;sensor_type;location;lat;lon;timestamp;P1;durP1;ratioP1;P2;durP2;ratioP2
7076;SDS011;3579;48.956;9.154;2023-06-26T00:02:24;4.40;;;4.00;;
7076;SDS011;3579;48.956;9.154;2023-06-26T00:04:50;4.57;;;4.17;;
7076;SDS011;3579;48.956;9.154;2023-06-26T00:07:19;5.10;;;4.70;;
7076;SDS011;3579;48.956;9.154;2023-06-26T00:09:46;4.67;;;4.27;;
7076;SDS011;3579;48.956;9.154;2023-06-26T00:12:12;4.70;;;4.30;;
7076;SDS011;3579;48.956;9.154;2023-06-26T00:14:38;4.27;;;3.87;;
7076;SDS011;3579;48.956;9.154;2023-06-26T00:17:04;4.70;;;4.20;;
7076;SDS011;3579;48.956;9.154;2023-06-26T00:19:30;4.50;;;4.10;;
7076;SDS011;3579;48.956;9.154;2023-06-26T00:21:56;4.80;;;4.40;;
7076;SDS011;3579;48.956;9.154;2023-06-26T00:24:22;4.73;;;4.33;;
7076;SDS011;3579;48.956;9.154;2023-06-26T00:26:48;4.60;;;4.20;;
7076;SDS011;3579;48.956;9.154;2023-06-26T00:29:14;5.10;;;4.60;;
7076;SDS011;3579;48.956;9.154;2023-06-26T00:31:40;4.60;;;4.20;;
7076;SDS011;3579;48.956;9.154;2023-06-26T00:34:06;5.10;;;4.60;;
7076;SDS011;3579;48.956;9.154;2023-06-26T00:36:32;4.67;;;4.27;;
7076;SDS011;3579;48.956;9.154;2023-06-26T00:38:58;4.40;;;4.00;;
7076;SDS011;3579;48.956;9.154;2023-06-26T00:41:25;5.37;;;4.43;;
7076;SDS011;3579;48.956;9.154;2023-06-26T00:43:51;4.57;;;4.17;;
7076;SDS011;3579;48.956;9.154;2023-06-26T00:46:17;4.90;;;4.43;;
7076;SDS011;3579;48.956;9.154;2023-06-26T00:48:43;4.53;;;4.13;;
7076;SDS011;3579;48.956;9.154;2023-06-26T00:51:11;4.80;;;4.40;;
7076;SDS011;3579;48.956;9.154;2023-06-26T00:53:37;4.87;;;4.43;;
7076;SDS011;3579;48.956;9.154;2023-06-26T00:56:03;4.83;;;4.43;;
7076;SDS011;3579;48.956;9.154;2023-06-26T00:58:31;4.80;;;4.40;;
7076;SDS011;3579;48.956;9.154;2023-06-26T01:00:57;4.70;;;4.30;;
7076;SDS011;3579;48.956;9.154;2023-06-26T01:03:23;4.80;;;4.40;;
7076;SDS011;3579;48.956;9.154;2023-06-26T01:05:54;4.80;;;4.30;;
7076;SDS011;3579;48.956;9.154;2023-06-26T01:08:22;4.80;;;4.40;;
7076;SDS011;3579;48.956;9.154;2023-06-26T01:10:49;4.37;;;4.00;;
7076;SDS011;3579;48.956;9.154;2023-06-26T01:13:15;4.20;;;3.90;;
7076;SDS011;3579;48.956;9.154;2023-06-26T01:15:42;4.70;;;4.30;;
7076;SDS011;3579;48.956;9.154;2023-06-26T01:18:08;4.63;;;4.20;;
7076;SDS011;3579;48.956;9.154;2023-06-26T01:20:35;5.37;;;4.60;;
7076;SDS011;3579;48.956;9.154;2023-06-26T01:23:07;4.83;;;4.43;;
7076;SDS011;3579;48.956;9.154;2023-06-26T01:28:16;4.77;;;4.37;;
7076;SDS011;3579;48.956;9.154;2023-06-26T01:30:45;4.83;;;4.33;;
7076;SDS011;3579;48.956;9.154;2023-06-26T01:33:12;4.73;;;4.27;;
7076;SDS011;3579;48.956;9.154;2023-06-26T01:35:39;4.70;;;4.30;;
7076;SDS011;3579;48.956;9.154;2023-06-26T01:40:39;4.90;;;4.50;;
7076;SDS011;3579;48.956;9.154;2023-06-26T01:43:06;4.77;;;4.37;;
7076;SDS011;3579;48.956;9.154;2023-06-26T01:45:36;5.00;;;4.50;;
7076;SDS011;3579;48.956;9.154;2023-06-26T01:48:03;5.07;;;4.57;;
7076;SDS011;3579;48.956;9.154;2023-06-26T01:50:32;4.90;;;4.50;;
7076;SDS011;3579;48.956;9.154;2023-06-26T01:53:05;5.73;;;5.13;;
7076;SDS011;3579;48.956;9.154;2023-06-26T01:58:13;4.50;;;4.10;;
7076;SDS011;3579;48.956;9.154;2023-06-26T02:00:40;5.00;;;4.50;;
7076;SDS011;3579;48.956;9.154;2023-06-26T02:03:07;4.97;;;4.53;;
7076;SDS011;3579;48.956;9.154;2023-06-26T02:05:33;5.10;;;4.60;;
7076;SDS011;3579;48.956;9.154;2023-06-26T02:07:59;5.63;;;4.67;;
7076;SDS011;3579;48.956;9.154;2023-06-26T02:10:26;5.40;;;4.90;;
7076;SDS011;3579;48.956;9.154;2023-06-26T02:12:52;5.23;;;4.50;;
7076;SDS011;3579;48.956;9.154;2023-06-26T02:15:18;5.03;;;4.57;;
7076;SDS011;3579;48.956;9.154;2023-06-26T02:17:44;5.27;;;4.63;;
7076;SDS011;3579;48.956;9.154;2023-06-26T02:20:14;5.13;;;4.67;;
7076;SDS011;3579;48.956;9.154;2023-06-26T02:22:41;5.40;;;4.90;;
7076;SDS011;3579;48.956;9.154;2023-06-26T02:25:08;5.37;;;4.87;;
7076;SDS011;3579;48.956;9.154;2023-06-26T02:27:34;5.23;;;4.73;;
7076;SDS011;3579;48.956;9.154;2023-06-26T02:30:00;4.60;;;4.20;;
7076;SDS011;3579;48.956;9.154;2023-06-26T02:32:27;5.40;;;4.90;;
7076;SDS011;3579;48.956;9.154;2023-06-26T02:34:53;5.30;;;4.80;;
7076;SDS011;3579;48.956;9.154;2023-06-26T02:37:19;5.27;;;4.50;;
7076;SDS011;3579;48.956;9.154;2023-06-26T02:39:45;5.20;;;4.70;;
7076;SDS011;3579;48.956;9.154;2023-06-26T02:42:11;5.07;;;4.60;;
7076;SDS011;3579;48.956;9.154;2023-06-26T02:44:37;4.83;;;4.43;;
7076;SDS011;3579;48.956;9.154;2023-06-26T02:47:03;5.53;;;5.03;;
7076;SDS011;3579;48.956;9.154;2023-06-26T02:49:30;5.57;;;5.07;;
7076;SDS011;3579;48.956;9.154;2023-06-26T02:51:56;5.37;;;4.87;;
7076;SDS011;3579;48.956;9.154;2023-06-26T02:54:21;4.93;;;4.43;;
7076;SDS011;3579;48.956;9.154;2023-06-26T02:56:47;5.60;;;5.00;;
7076;SDS011;3579;48.956;9.154;2023-06-26T02:59:14;5.37;;;4.87;;
7076;SDS011;3579;48.956;9.154;2023-06-26T03:01:40;5.13;;;4.70;;
7076;SDS011;3579;48.956;9.154;2023-06-26T03:04:06;5.00;;;4.60;;
7076;SDS011;3579;48.956;9.154;2023-06-26T03:06:32;5.60;;;5.10;;
7076;SDS011;3579;48.956;9.154;2023-06-26T03:08:58;5.63;;;5.13;;
7076;SDS011;3579;48.956;9.154;2023-06-26T03:11:24;4.97;;;4.57;;
7076;SDS011;3579;48.956;9.154;2023-06-26T03:13:50;4.90;;;4.50;;
7076;SDS011;3579;48.956;9.154;2023-06-26T03:16:16;5.30;;;4.80;;
7076;SDS011;3579;48.956;9.154;2023-06-26T03:18:42;5.37;;;4.87;;
7076;SDS011;3579;48.956;9.154;2023-06-26T03:21:08;4.93;;;4.53;;
7076;SDS011;3579;48.956;9.154;2023-06-26T03:23:35;5.20;;;4.70;;
7076;SDS011;3579;48.956;9.154;2023-06-26T03:26:01;5.23;;;4.80;;
7076;SDS011;3579;48.956;9.154;2023-06-26T03:28:27;5.00;;;4.60;;
7076;SDS011;3579;48.956;9.154;2023-06-26T03:30:53;5.73;;;5.07;;
7076;SDS011;3579;48.956;9.154;2023-06-26T03:33:18;5.80;;;4.90;;
7076;SDS011;3579;48.956;9.154;2023-06-26T03:35:44;5.57;;;5.07;;
7076;SDS011;3579;48.956;9.154;2023-06-26T03:38:11;5.30;;;4.80;;
7076;SDS011;3579;48.956;9.154;2023-06-26T03:40:37;5.30;;;4.80;;
7076;SDS011;3579;48.956;9.154;2023-06-26T03:43:03;5.57;;;5.00;;
7076;SDS011;3579;48.956;9.154;2023-06-26T03:45:29;5.13;;;4.63;;
7076;SDS011;3579;48.956;9.154;2023-06-26T03:47:55;5.40;;;4.90;;
7076;SDS011;3579;48.956;9.154;2023-06-26T03:50:21;4.97;;;4.57;;
7076;SDS011;3579;48.956;9.154;2023-06-26T03:52:47;4.80;;;4.40;;
7076;SDS011;3579;48.956;9.154;2023-06-26T03:55:13;6.47;;;4.50;;
7076;SDS011;3579;48.956;9.154;2023-06-26T03:57:39;4.93;;;4.43;;
7076;SDS011;3579;48.956;9.154;2023-06-26T04:00:05;5.37;;;4.83;;
7076;SDS011;3579;48.956;9.154;2023-06-26T04:02:34;5.20;;;4.73;;
7076;SDS011;3579;48.956;9.154;2023-06-26T04:05:01;4.83;;;4.33;;
7076;SDS011;3579;48.956;9.154;2023-06-26T04:07:28;5.17;;;4.70;;
7076;SDS011;3579;48.956;9.154;2023-06-26T04:09:54;5.00;;;4.47;;
7076;SDS011;3579;48.956;9.154;2023-06-26T04:12:20;4.87;;;4.40;;
7076;SDS011;3579;48.956;9.154;2023-06-26T04:14:46;5.60;;;5.10;;
7076;SDS011;3579;48.956;9.154;2023-06-26T04:17:12;5.00;;;4.60;;
7076;SDS011;3579;48.956;9.154;2023-06-26T04:19:38;5.10;;;4.70;;
7076;SDS011;3579;48.956;9.154;2023-06-26T04:22:04;5.33;;;4.83;;
7076;SDS011;3579;48.956;9.154;2023-06-26T04:24:30;5.53;;;5.03;;
7076;SDS011;3579;48.956;9.154;2023-06-26T04:26:56;5.60;;;5.10;;
7076;SDS011;3579;48.956;9.154;2023-06-26T04:29:23;6.80;;;6.10;;
7076;SDS011;3579;48.956;9.154;2023-06-26T04:31:53;6.60;;;5.90;;
7076;SDS011;3579;48.956;9.154;2023-06-26T04:34:29;7.10;;;6.00;;
7076;SDS011;3579;48.956;9.154;2023-06-26T04:37:00;8.00;;;6.47;;
7076;SDS011;3579;48.956;9.154;2023-06-26T04:39:29;6.60;;;5.90;;
7076;SDS011;3579;48.956;9.154;2023-06-26T04:41:56;7.50;;;6.80;;
7076;SDS011;3579;48.956;9.154;2023-06-26T04:44:22;7.60;;;6.80;;
7076;SDS011;3579;48.956;9.154;2023-06-26T04:46:47;8.33;;;6.60;;
7076;SDS011;3579;48.956;9.154;2023-06-26T04:49:17;10.00;;;6.37;;
7076;SDS011;3579;48.956;9.154;2023-06-26T04:51:44;8.90;;;7.27;;
7076;SDS011;3579;48.956;9.154;2023-06-26T04:54:10;9.90;;;7.17;;
7076;SDS011;3579;48.956;9.154;2023-06-26T04:56:36;8.87;;;7.10;;
7076;SDS011;3579;48.956;9.154;2023-06-26T04:59:05;7.60;;;6.87;;
7076;SDS011;3579;48.956;9.154;2023-06-26T05:01:31;8.03;;;6.90;;
7076;SDS011;3579;48.956;9.154;2023-06-26T05:04:00;8.23;;;7.13;;
7076;SDS011;3579;48.956;9.154;2023-06-26T05:06:26;8.40;;;6.40;;
7076;SDS011;3579;48.956;9.154;2023-06-26T05:08:52;8.13;;;7.33;;
7076;SDS011;3579;48.956;9.154;2023-06-26T05:11:18;8.47;;;6.80;;
7076;SDS011;3579;48.956;9.154;2023-06-26T05:13:44;8.47;;;7.17;;
7076;SDS011;3579;48.956;9.154;2023-06-26T05:16:10;9.13;;;6.83;;
7076;SDS011;3579;48.956;9.154;2023-06-26T05:18:36;8.33;;;7.17;;
7076;SDS011;3579;48.956;9.154;2023-06-26T05:21:02;9.43;;;7.40;;
7076;SDS011;3579;48.956;9.154;2023-06-26T05:23:32;8.00;;;6.63;;
7076;SDS011;3579;48.956;9.154;2023-06-26T05:25:59;8.40;;;7.50;;
7076;SDS011;3579;48.956;9.154;2023-06-26T05:28:29;8.53;;;7.63;;
7076;SDS011;3579;48.956;9.154;2023-06-26T05:30:58;8.23;;;6.70;;
7076;SDS011;3579;48.956;9.154;2023-06-26T05:33:26;9.97;;;7.10;;
7076;SDS011;3579;48.956;9.154;2023-06-26T05:35:52;8.70;;;7.37;;
7076;SDS011;3579;48.956;9.154;2023-06-26T05:38:19;11.03;;;8.17;;
7076;SDS011;3579;48.956;9.154;2023-06-26T05:40:45;11.43;;;7.57;;
7076;SDS011;3579;48.956;9.154;2023-06-26T05:43:12;12.13;;;7.80;;
7076;SDS011;3579;48.956;9.154;2023-06-26T05:45:38;11.80;;;7.60;;
7076;SDS011;3579;48.956;9.154;2023-06-26T05:48:05;11.50;;;7.83;;
7076;SDS011;3579;48.956;9.154;2023-06-26T05:50:31;11.03;;;7.00;;
7076;SDS011;3579;48.956;9.154;2023-06-26T05:53:04;9.30;;;7.67;;
7076;SDS011;3579;48.956;9.154;2023-06-26T05:55:31;8.70;;;7.80;;
7076;SDS011;3579;48.956;9.154;2023-06-26T05:57:57;10.90;;;8.80;;
7076;SDS011;3579;48.956;9.154;2023-06-26T06:00:25;13.07;;;8.87;;
7076;SDS011;3579;48.956;9.154;2023-06-26T06:02:52;10.33;;;9.20;;
7076;SDS011;3579;48.956;9.154;2023-06-26T06:05:22;10.73;;;9.10;;
7076;SDS011;3579;48.956;9.154;2023-06-26T06:07:49;10.23;;;8.63;;
7076;SDS011;3579;48.956;9.154;2023-06-26T06:10:15;9.73;;;8.47;;
7076;SDS011;3579;48.956;9.154;2023-06-26T06:12:41;13.10;;;9.00;;
7076;SDS011;3579;48.956;9.154;2023-06-26T06:15:07;11.17;;;8.83;;
7076;SDS011;3579;48.956;9.154;2023-06-26T06:17:34;11.80;;;8.30;;
7076;SDS011;3579;48.956;9.154;2023-06-26T06:19:59;13.07;;;9.33;;
7076;SDS011;3579;48.956;9.154;2023-06-26T06:22:26;9.23;;;8.17;;
7076;SDS011;3579;48.956;9.154;2023-06-26T06:24:52;10.80;;;8.57;;
7076;SDS011;3579;48.956;9.154;2023-06-26T06:27:18;10.37;;;8.37;;
7076;SDS011;3579;48.956;9.154;2023-06-26T06:29:44;13.00;;;8.33;;
7076;SDS011;3579;48.956;9.154;2023-06-26T06:32:10;11.57;;;8.60;;
7076;SDS011;3579;48.956;9.154;2023-06-26T06:34:36;10.67;;;8.07;;
7076;SDS011;3579;48.956;9.154;2023-06-26T06:37:02;12.37;;;8.30;;
7076;SDS011;3579;48.956;9.154;2023-06-26T06:39:28;11.17;;;8.40;;
7076;SDS011;3579;48.956;9.154;2023-06-26T06:41:54;12.07;;;8.97;;
7076;SDS011;3579;48.956;9.154;2023-06-26T06:44:20;13.83;;;8.33;;
7076;SDS011;3579;48.956;9.154;2023-06-26T06:46:47;13.33;;;8.60;;
7076;SDS011;3579;48.956;9.154;2023-06-26T06:49:13;16.17;;;9.13;;
7076;SDS011;3579;48.956;9.154;2023-06-26T06:51:40;12.23;;;8.13;;
7076;SDS011;3579;48.956;9.154;2023-06-26T06:54:06;12.70;;;8.80;;
7076;SDS011;3579;48.956;9.154;2023-06-26T06:56:32;10.87;;;8.33;;
7076;SDS011;3579;48.956;9.154;2023-06-26T06:58:58;12.87;;;8.17;;
7076;SDS011;3579;48.956;9.154;2023-06-26T07:01:24;12.87;;;9.03;;
7076;SDS011;3579;48.956;9.154;2023-06-26T07:03:50;13.90;;;8.20;;
7076;SDS011;3579;48.956;9.154;2023-06-26T07:06:16;11.83;;;8.73;;
7076;SDS011;3579;48.956;9.154;2023-06-26T07:08:43;12.63;;;8.67;;
7076;SDS011;3579;48.956;9.154;2023-06-26T07:11:09;15.17;;;8.30;;
7076;SDS011;3579;48.956;9.154;2023-06-26T07:13:35;12.57;;;8.17;;
7076;SDS011;3579;48.956;9.154;2023-06-26T07:16:01;11.90;;;8.50;;
7076;SDS011;3579;48.956;9.154;2023-06-26T07:18:28;13.93;;;8.60;;
7076;SDS011;3579;48.956;9.154;2023-06-26T07:20:54;15.50;;;8.37;;
7076;SDS011;3579;48.956;9.154;2023-06-26T07:23:20;10.83;;;8.70;;
7076;SDS011;3579;48.956;9.154;2023-06-26T07:25:46;12.03;;;8.30;;
7076;SDS011;3579;48.956;9.154;2023-06-26T07:28:12;8.23;;;7.37;;
7076;SDS011;3579;48.956;9.154;2023-06-26T07:30:39;15.73;;;8.80;;
7076;SDS011;3579;48.956;9.154;2023-06-26T07:33:05;8.90;;;7.70;;
7076;SDS011;3579;48.956;9.154;2023-06-26T07:35:31;10.33;;;8.23;;
7076;SDS011;3579;48.956;9.154;2023-06-26T07:37:57;8.50;;;7.60;;
7076;SDS011;3579;48.956;9.154;2023-06-26T07:40:23;9.40;;;7.33;;
7076;SDS011;3579;48.956;9.154;2023-06-26T07:42:49;9.67;;;7.37;;
7076;SDS011;3579;48.956;9.154;2023-06-26T07:45:15;10.83;;;7.37;;
7076;SDS011;3579;48.956;9.154;2023-06-26T07:47:42;11.87;;;7.60;;
7076;SDS011;3579;48.956;9.154;2023-06-26T07:50:08;10.80;;;7.67;;
7076;SDS011;3579;48.956;9.154;2023-06-26T07:52:34;8.70;;;7.70;;
7076;SDS011;3579;48.956;9.154;2023-06-26T07:55:00;10.47;;;7.53;;
7076;SDS011;3579;48.956;9.154;2023-06-26T07:57:27;10.47;;;7.50;;
7076;SDS011;3579;48.956;9.154;2023-06-26T07:59:53;12.93;;;7.20;;
7076;SDS011;3579;48.956;9.154;2023-06-26T08:02:19;8.60;;;7.17;;
7076;SDS011;3579;48.956;9.154;2023-06-26T08:04:46;8.00;;;6.83;;
7076;SDS011;3579;48.956;9.154;2023-06-26T08:07:12;11.37;;;7.53;;
7076;SDS011;3579;48.956;9.154;2023-06-26T08:09:39;10.77;;;6.97;;
7076;SDS011;3579;48.956;9.154;2023-06-26T08:12:06;8.80;;;6.70;;
7076;SDS011;3579;48.956;9.154;2023-06-26T08:14:32;8.00;;;6.63;;
7076;SDS011;3579;48.956;9.154;2023-06-26T08:16:58;8.50;;;6.60;;
7076;SDS011;3579;48.956;9.154;2023-06-26T08:19:25;8.33;;;6.73;;
7076;SDS011;3579;48.956;9.154;2023-06-26T08:21:51;8.37;;;6.87;;
7076;SDS011;3579;48.956;9.154;2023-06-26T08:24:17;10.10;;;6.37;;
7076;SDS011;3579;48.956;9.154;2023-06-26T08:26:44;8.20;;;6.60;;
7076;SDS011;3579;48.956;9.154;2023-06-26T08:29:12;9.17;;;6.10;;
7076;SDS011;3579;48.956;9.154;2023-06-26T08:31:38;9.03;;;6.70;;
7076;SDS011;3579;48.956;9.154;2023-06-26T08:34:04;9.13;;;6.40;;
7076;SDS011;3579;48.956;9.154;2023-06-26T08:36:31;9.70;;;6.23;;
7076;SDS011;3579;48.956;9.154;2023-06-26T08:38:57;7.17;;;5.90;;
7076;SDS011;3579;48.956;9.154;2023-06-26T08:41:24;7.83;;;6.07;;
7076;SDS011;3579;48.956;9.154;2023-06-26T08:43:50;9.97;;;6.03;;
7076;SDS011;3579;48.956;9.154;2023-06-26T08:46:18;6.43;;;5.80;;
7076;SDS011;3579;48.956;9.154;2023-06-26T08:48:46;8.30;;;5.90;;
7076;SDS011;3579;48.956;9.154;2023-06-26T08:51:16;8.60;;;6.07;;
7076;SDS011;3579;48.956;9.154;2023-06-26T08:56:24;7.37;;;5.90;;
7076;SDS011;3579;48.956;9.154;2023-06-26T08:59:03;8.37;;;5.53;;
7076;SDS011;3579;48.956;9.154;2023-06-26T09:01:30;7.53;;;5.97;;
7076;SDS011;3579;48.956;9.154;2023-06-26T09:03:57;5.97;;;5.30;;
7076;SDS011;3579;48.956;9.154;2023-06-26T09:06:24;6.57;;;5.60;;
7076;SDS011;3579;48.956;9.154;2023-06-26T09:08:51;6.80;;;5.30;;
7076;SDS011;3579;48.956;9.154;2023-06-26T09:11:18;6.30;;;5.07;;
7076;SDS011;3579;48.956;9.154;2023-06-26T09:13:44;9.77;;;5.80;;
7076;SDS011;3579;48.956;9.154;2023-06-26T09:16:13;7.37;;;5.20;;
7076;SDS011;3579;48.956;9.154;2023-06-26T09:18:42;6.00;;;5.10;;
7076;SDS011;3579;48.956;9.154;2023-06-26T09:21:08;5.33;;;4.83;;
7076;SDS011;3579;48.956;9.154;2023-06-26T09:23:35;7.80;;;5.27;;
7076;SDS011;3579;48.956;9.154;2023-06-26T09:26:02;5.20;;;4.70;;
7076;SDS011;3579;48.956;9.154;2023-06-26T09:28:30;8.93;;;5.13;;
7076;SDS011;3579;48.956;9.154;2023-06-26T09:31:00;9.33;;;5.27;;
7076;SDS011;3579;48.956;9.154;2023-06-26T09:33:33;5.93;;;4.57;;
7076;SDS011;3579;48.956;9.154;2023-06-26T09:36:09;5.47;;;4.97;;
7076;SDS011;3579;48.956;9.154;2023-06-26T09:38:45;6.60;;;5.27;;
7076;SDS011;3579;48.956;9.154;2023-06-26T09:41:11;6.83;;;5.10;;
7076;SDS011;3579;48.956;9.154;2023-06-26T09:43:47;8.00;;;5.50;;
7076;SDS011;3579;48.956;9.154;2023-06-26T09:46:17;11.37;;;5.77;;
7076;SDS011;3579;48.956;9.154;2023-06-26T09:49:03;8.27;;;5.07;;
7076;SDS011;3579;48.956;9.154;2023-06-26T09:51:34;7.20;;;5.67;;
7076;SDS011;3579;48.956;9.154;2023-06-26T09:54:01;7.70;;;5.27;;
7076;SDS011;3579;48.956;9.154;2023-06-26T09:56:28;10.63;;;6.10;;
7076;SDS011;3579;48.956;9.154;2023-06-26T09:58:56;10.83;;;6.00;;
7076;SDS011;3579;48.956;9.154;2023-06-26T10:01:24;8.67;;;5.87;;
7076;SDS011;3579;48.956;9.154;2023-06-26T10:03:51;6.07;;;5.47;;
7076;SDS011;3579;48.956;9.154;2023-06-26T10:06:22;6.47;;;5.77;;
7076;SDS011;3579;48.956;9.154;2023-06-26T10:08:53;9.47;;;5.93;;
7076;SDS011;3579;48.956;9.154;2023-06-26T10:11:22;8.27;;;5.70;;
7076;SDS011;3579;48.956;9.154;2023-06-26T10:13:51;7.27;;;5.17;;
7076;SDS011;3579;48.956;9.154;2023-06-26T10:16:23;8.17;;;5.63;;
7076;SDS011;3579;48.956;9.154;2023-06-26T10:18:55;7.00;;;5.83;;
7076;SDS011;3579;48.956;9.154;2023-06-26T10:21:24;8.53;;;5.63;;
7076;SDS011;3579;48.956;9.154;2023-06-26T10:23:52;8.47;;;5.47;;
7076;SDS011;3579;48.956;9.154;2023-06-26T10:26:20;9.07;;;5.27;;
7076;SDS011;3579;48.956;9.154;2023-06-26T10:28:48;8.13;;;6.07;;
7076;SDS011;3579;48.956;9.154;2023-06-26T10:31:18;13.47;;;6.10;;
7076;SDS011;3579;48.956;9.154;2023-06-26T10:33:48;6.27;;;5.67;;
7076;SDS011;3579;48.956;9.154;2023-06-26T10:36:17;9.60;;;5.73;;
7076;SDS011;3579;48.956;9.154;2023-06-26T10:38:51;11.00;;;5.67;;
7076;SDS011;3579;48.956;9.154;2023-06-26T10:41:19;16.73;;;6.57;;
7076;SDS011;3579;48.956;9.154;2023-06-26T10:46:55;13.63;;;6.50;;
7076;SDS011;3579;48.956;9.154;2023-06-26T10:49:25;8.37;;;6.27;;
7076;SDS011;3579;48.956;9.154;2023-06-26T10:51:53;10.13;;;6.77;;
7076;SDS011;3579;48.956;9.154;2023-06-26T10:54:21;11.37;;;6.07;;
7076;SDS011;3579;48.956;9.154;2023-06-26T10:56:48;8.60;;;6.30;;
7076;SDS011;3579;48.956;9.154;2023-06-26T10:59:32;11.43;;;6.17;;
7076;SDS011;3579;48.956;9.154;2023-06-26T11:01:59;7.07;;;5.60;;
7076;SDS011;3579;48.956;9.154;2023-06-26T11:04:45;13.17;;;6.67;;
7076;SDS011;3579;48.956;9.154;2023-06-26T11:07:21;10.97;;;6.07;;
7076;SDS011;3579;48.956;9.154;2023-06-26T11:10:09;6.87;;;6.07;;
7076;SDS011;3579;48.956;9.154;2023-06-26T11:12:41;6.93;;;6.20;;
7076;SDS011;3579;48.956;9.154;2023-06-26T11:15:13;8.47;;;6.30;;
7076;SDS011;3579;48.956;9.154;2023-06-26T11:17:41;7.07;;;6.23;;
7076;SDS011;3579;48.956;9.154;2023-06-26T11:20:08;8.67;;;6.60;;
7076;SDS011;3579;48.956;9.154;2023-06-26T11:22:36;12.87;;;6.50;;
7076;SDS011;3579;48.956;9.154;2023-06-26T11:25:07;8.27;;;6.17;;
7076;SDS011;3579;48.956;9.154;2023-06-26T11:30:11;7.73;;;6.23;;
7076;SDS011;3579;48.956;9.154;2023-06-26T11:32:48;9.33;;;6.30;;
7076;SDS011;3579;48.956;9.154;2023-06-26T11:35:21;10.27;;;6.10;;
7076;SDS011;3579;48.956;9.154;2023-06-26T11:37:56;14.60;;;6.47;;
7076;SDS011;3579;48.956;9.154;2023-06-26T11:40:29;10.67;;;5.93;;
7076;SDS011;3579;48.956;9.154;2023-06-26T11:43:03;14.50;;;6.13;;
7076;SDS011;3579;48.956;9.154;2023-06-26T11:45:30;9.63;;;6.13;;
7076;SDS011;3579;48.956;9.154;2023-06-26T11:47:57;8.13;;;5.77;;
7076;SDS011;3579;48.956;9.154;2023-06-26T11:50:24;11.77;;;6.57;;
7076;SDS011;3579;48.956;9.154;2023-06-26T11:52:54;10.90;;;6.17;;
7076;SDS011;3579;48.956;9.154;2023-06-26T11:55:24;7.80;;;6.70;;
7076;SDS011;3579;48.956;9.154;2023-06-26T11:57:57;7.73;;;6.43;;
7076;SDS011;3579;48.956;9.154;2023-06-26T12:00:26;7.30;;;6.60;;
7076;SDS011;3579;48.956;9.154;2023-06-26T12:02:56;10.63;;;6.07;;
7076;SDS011;3579;48.956;9.154;2023-06-26T12:05:31;12.10;;;6.83;;
7076;SDS011;3579;48.956;9.154;2023-06-26T12:08:04;6.67;;;5.97;;
7076;SDS011;3579;48.956;9.154;2023-06-26T12:10:43;8.73;;;6.00;;
7076;SDS011;3579;48.956;9.154;2023-06-26T12:13:20;8.37;;;6.03;;
7076;SDS011;3579;48.956;9.154;2023-06-26T12:15:59;11.63;;;6.77;;
7076;SDS011;3579;48.956;9.154;2023-06-26T12:18:25;17.27;;;6.53;;
7076;SDS011;3579;48.956;9.154;2023-06-26T12:20:58;10.53;;;6.30;;
7076;SDS011;3579;48.956;9.154;2023-06-26T12:23:31;13.40;;;7.10;;
7076;SDS011;3579;48.956;9.154;2023-06-26T12:26:16;8.47;;;6.67;;
7076;SDS011;3579;48.956;9.154;2023-06-26T12:31:41;9.33;;;6.67;;
7076;SDS011;3579;48.956;9.154;2023-06-26T12:34:13;7.57;;;6.17;;
7076;SDS011;3579;48.956;9.154;2023-06-26T12:36:45;7.17;;;6.33;;
7076;SDS011;3579;48.956;9.154;2023-06-26T12:39:18;9.37;;;6.67;;
7076;SDS011;3579;48.956;9.154;2023-06-26T12:41:53;8.53;;;6.53;;
7076;SDS011;3579;48.956;9.154;2023-06-26T12:46:58;11.23;;;6.47;;
7076;SDS011;3579;48.956;9.154;2023-06-26T12:49:34;9.77;;;6.50;;
7076;SDS011;3579;48.956;9.154;2023-06-26T12:52:02;10.07;;;6.47;;
7076;SDS011;3579;48.956;9.154;2023-06-26T12:54:34;11.80;;;6.40;;
7076;SDS011;3579;48.956;9.154;2023-06-26T12:57:01;10.07;;;6.97;;
7076;SDS011;3579;48.956;9.154;2023-06-26T12:59:29;7.23;;;5.97;;
7076;SDS011;3579;48.956;9.154;2023-06-26T13:01:56;11.27;;;6.50;;
7076;SDS011;3579;48.956;9.154;2023-06-26T13:04:23;8.43;;;6.17;;
7076;SDS011;3579;48.956;9.154;2023-06-26T13:06:49;8.53;;;6.10;;
7076;SDS011;3579;48.956;9.154;2023-06-26T13:09:16;9.23;;;5.83;;
7076;SDS011;3579;48.956;9.154;2023-06-26T13:11:42;10.27;;;6.07;;
7076;SDS011;3579;48.956;9.154;2023-06-26T13:14:08;7.37;;;5.70;;
7076;SDS011;3579;48.956;9.154;2023-06-26T13:16:36;7.47;;;5.50;;
7076;SDS011;3579;48.956;9.154;2023-06-26T13:19:02;8.70;;;5.20;;
7076;SDS011;3579;48.956;9.154;2023-06-26T13:21:28;7.83;;;5.43;;
7076;SDS011;3579;48.956;9.154;2023-06-26T13:23:55;8.67;;;5.13;;
7076;SDS011;3579;48.956;9.154;2023-06-26T13:26:21;8.03;;;5.13;;
7076;SDS011;3579;48.956;9.154;2023-06-26T13:28:48;8.47;;;4.63;;
7076;SDS011;3579;48.956;9.154;2023-06-26T13:31:15;7.13;;;5.50;;
7076;SDS011;3579;48.956;9.154;2023-06-26T13:33:41;6.27;;;4.53;;
7076;SDS011;3579;48.956;9.154;2023-06-26T13:36:07;6.43;;;4.80;;
7076;SDS011;3579;48.956;9.154;2023-06-26T13:38:33;9.93;;;5.00;;
7076;SDS011;3579;48.956;9.154;2023-06-26T13:41:00;7.60;;;4.77;;
7076;SDS011;3579;48.956;9.154;2023-06-26T13:43:26;8.03;;;4.60;;
7076;SDS011;3579;48.956;9.154;2023-06-26T13:45:53;6.07;;;4.47;;
7076;SDS011;3579;48.956;9.154;2023-06-26T13:48:20;7.50;;;4.43;;
7076;SDS011;3579;48.956;9.154;2023-06-26T13:50:47;9.33;;;4.60;;
7076;SDS011;3579;48.956;9.154;2023-06-26T13:53:13;8.33;;;4.13;;
7076;SDS011;3579;48.956;9.154;2023-06-26T13:55:40;7.27;;;3.93;;
7076;SDS011;3579;48.956;9.154;2023-06-26T13:58:07;6.40;;;4.43;;
7076;SDS011;3579;48.956;9.154;2023-06-26T14:00:33;5.87;;;4.00;;
7076;SDS011;3579;48.956;9.154;2023-06-26T14:03:00;9.07;;;4.03;;
7076;SDS011;3579;48.956;9.154;2023-06-26T14:05:29;7.17;;;4.67;;
7076;SDS011;3579;48.956;9.154;2023-06-26T14:07:55;8.13;;;5.03;;
7076;SDS011;3579;48.956;9.154;2023-06-26T14:10:21;6.67;;;4.70;;
7076;SDS011;3579;48.956;9.154;2023-06-26T14:12:48;9.10;;;4.63;;
7076;SDS011;3579;48.956;9.154;2023-06-26T14:15:14;6.10;;;4.87;;
7076;SDS011;3579;48.956;9.154;2023-06-26T14:17:40;9.17;;;4.73;;
7076;SDS011;3579;48.956;9.154;2023-06-26T14:20:07;6.60;;;4.40;;
7076;SDS011;3579;48.956;9.154;2023-06-26T14:22:40;8.47;;;4.17;;
7076;SDS011;3579;48.956;9.154;2023-06-26T14:25:07;6.10;;;4.00;;
7076;SDS011;3579;48.956;9.154;2023-06-26T14:27:34;5.90;;;3.83;;
7076;SDS011;3579;48.956;9.154;2023-06-26T14:30:00;8.20;;;4.13;;
7076;SDS011;3579;48.956;9.154;2023-06-26T14:32:28;8.57;;;4.20;;
7076;SDS011;3579;48.956;9.154;2023-06-26T14:34:56;8.33;;;4.10;;
7076;SDS011;3579;48.956;9.154;2023-06-26T14:37:22;6.83;;;3.83;;
7076;SDS011;3579;48.956;9.154;2023-06-26T14:39:49;10.93;;;4.57;;
7076;SDS011;3579;48.956;9.154;2023-06-26T14:42:15;9.90;;;3.90;;
7076;SDS011;3579;48.956;9.154;2023-06-26T14:44:41;7.00;;;4.50;;
7076;SDS011;3579;48.956;9.154;2023-06-26T14:47:07;8.97;;;4.47;;
7076;SDS011;3579;48.956;9.154;2023-06-26T14:49:34;6.93;;;4.03;;
7076;SDS011;3579;48.956;9.154;2023-06-26T14:52:00;7.37;;;3.67;;
7076;SDS011;3579;48.956;9.154;2023-06-26T14:54:26;6.60;;;3.97;;
7076;SDS011;3579;48.956;9.154;2023-06-26T14:56:53;9.07;;;4.30;;
7076;SDS011;3579;48.956;9.154;2023-06-26T14:59:19;6.07;;;3.77;;
7076;SDS011;3579;48.956;9.154;2023-06-26T15:01:46;10.43;;;3.90;;
7076;SDS011;3579;48.956;9.154;2023-06-26T15:04:12;7.67;;;4.60;;
7076;SDS011;3579;48.956;9.154;2023-06-26T15:06:38;6.30;;;4.00;;
7076;SDS011;3579;48.956;9.154;2023-06-26T15:09:04;10.13;;;3.87;;
7076;SDS011;3579;48.956;9.154;2023-06-26T15:11:31;7.10;;;4.23;;
7076;SDS011;3579;48.956;9.154;2023-06-26T15:13:57;5.23;;;3.93;;
7076;SDS011;3579;48.956;9.154;2023-06-26T15:16:23;11.00;;;4.10;;
7076;SDS011;3579;48.956;9.154;2023-06-26T15:18:49;5.97;;;4.20;;
7076;SDS011;3579;48.956;9.154;2023-06-26T15:21:15;4.53;;;3.90;;
7076;SDS011;3579;48.956;9.154;2023-06-26T15:23:41;7.50;;;4.03;;
7076;SDS011;3579;48.956;9.154;2023-06-26T15:26:07;6.00;;;4.37;;
7076;SDS011;3579;48.956;9.154;2023-06-26T15:28:33;6.13;;;4.90;;
7076;SDS011;3579;48.956;9.154;2023-06-26T15:30:59;6.97;;;4.33;;
7076;SDS011;3579;48.956;9.154;2023-06-26T15:33:25;6.30;;;4.50;;
7076;SDS011;3579;48.956;9.154;2023-06-26T15:35:51;7.87;;;4.40;;
7076;SDS011;3579;48.956;9.154;2023-06-26T15:38:17;5.47;;;4.10;;